sensor_id;sensor_type;location;lat;lon;timestamp;P1;durP1;ratioP1;P2;durP2;ratioP2
16928;SDS011;8581;47.334;11.190;2023-09-19T00:01:54;2.77;;;1.47;;
16928;SDS011;8581;47.334;11.190;2023-09-19T00:04:26;1.83;;;1.50;;
16928;SDS011;8581;47.334;11.190;2023-09-19T00:06:58;2.53;;;1.60;;
16928;SDS011;8581;47.334;11.190;2023-09-19T00:09:29;2.50;;;1.70;;
16928;SDS011;8581;47.334;11.190;2023-09-19T00:12:01;2.03;;;1.80;;
16928;SDS011;8581;47.334;11.190;2023-09-19T00:14:32;3.70;;;3.00;;
16928;SDS011;8581;47.334;11.190;2023-09-19T00:17:05;5.67;;;4.17;;
16928;SDS011;8581;47.334;11.190;2023-09-19T00:19:36;4.97;;;4.47;;
16928;SDS011;8581;47.334;11.190;2023-09-19T00:22:08;2.40;;;2.20;;
16928;SDS011;8581;47.334;11.190;2023-09-19T00:24:39;2.80;;;2.37;;
16928;SDS011;8581;47.334;11.190;2023-09-19T00:27:11;4.83;;;2.60;;
16928;SDS011;8581;47.334;11.190;2023-09-19T00:29:43;3.67;;;2.40;;
16928;SDS011;8581;47.334;11.190;2023-09-19T00:32:14;3.17;;;2.30;;
16928;SDS011;8581;47.334;11.190;2023-09-19T00:34:46;2.60;;;2.20;;
16928;SDS011;8581;47.334;11.190;2023-09-19T00:37:17;2.57;;;2.30;;
16928;SDS011;8581;47.334;11.190;2023-09-19T00:39:49;2.47;;;2.23;;
16928;SDS011;8581;47.334;11.190;2023-09-19T00:42:21;2.40;;;2.20;;
16928;SDS011;8581;47.334;11.190;2023-09-19T00:44:52;2.27;;;1.60;;
16928;SDS011;8581;47.334;11.190;2023-09-19T00:47:24;2.33;;;2.10;;
16928;SDS011;8581;47.334;11.190;2023-09-19T00:49:55;2.97;;;1.80;;
16928;SDS011;8581;47.334;11.190;2023-09-19T00:52:27;1.50;;;1.40;;
16928;SDS011;8581;47.334;11.190;2023-09-19T00:54:59;1.73;;;1.63;;
16928;SDS011;8581;47.334;11.190;2023-09-19T00:57:30;1.53;;;1.43;;
16928;SDS011;8581;47.334;11.190;2023-09-19T01:00:02;1.90;;;1.70;;
16928;SDS011;8581;47.334;11.190;2023-09-19T01:02:35;1.87;;;1.70;;
16928;SDS011;8581;47.334;11.190;2023-09-19T01:05:06;2.13;;;1.90;;
16928;SDS011;8581;47.334;11.190;2023-09-19T01:07:38;2.20;;;2.00;;
16928;SDS011;8581;47.334;11.190;2023-09-19T01:10:13;2.87;;;1.60;;
16928;SDS011;8581;47.334;11.190;2023-09-19T01:12:53;1.80;;;1.70;;
16928;SDS011;8581;47.334;11.190;2023-09-19T01:15:28;2.83;;;1.90;;
16928;SDS011;8581;47.334;11.190;2023-09-19T01:18:21;3.17;;;1.60;;
16928;SDS011;8581;47.334;11.190;2023-09-19T01:20:57;1.77;;;1.63;;
16928;SDS011;8581;47.334;11.190;2023-09-19T01:23:32;1.97;;;1.63;;
16928;SDS011;8581;47.334;11.190;2023-09-19T01:26:05;1.83;;;1.50;;
16928;SDS011;8581;47.334;11.190;2023-09-19T01:28:45;2.13;;;1.77;;
16928;SDS011;8581;47.334;11.190;2023-09-19T01:31:31;1.87;;;1.67;;
16928;SDS011;8581;47.334;11.190;2023-09-19T01:34:01;1.50;;;1.40;;
16928;SDS011;8581;47.334;11.190;2023-09-19T01:36:33;1.50;;;1.40;;
16928;SDS011;8581;47.334;11.190;2023-09-19T01:39:07;1.43;;;1.33;;
16928;SDS011;8581;47.334;11.190;2023-09-19T01:44:24;1.73;;;1.63;;
16928;SDS011;8581;47.334;11.190;2023-09-19T01:46:56;2.33;;;1.70;;
16928;SDS011;8581;47.334;11.190;2023-09-19T01:49:42;1.80;;;1.70;;
16928;SDS011;8581;47.334;11.190;2023-09-19T01:52:28;2.00;;;1.80;;
16928;SDS011;8581;47.334;11.190;2023-09-19T01:55:02;1.60;;;1.43;;
16928;SDS011;8581;47.334;11.190;2023-09-19T01:57:33;1.50;;;1.40;;
16928;SDS011;8581;47.334;11.190;2023-09-19T02:00:07;2.63;;;1.43;;
16928;SDS011;8581;47.334;11.190;2023-09-19T02:02:39;1.90;;;1.70;;
16928;SDS011;8581;47.334;11.190;2023-09-19T02:05:11;1.70;;;1.60;;
16928;SDS011;8581;47.334;11.190;2023-09-19T02:07:42;1.60;;;1.50;;
16928;SDS011;8581;47.334;11.190;2023-09-19T02:10:14;2.33;;;1.60;;
16928;SDS011;8581;47.334;11.190;2023-09-19T02:12:46;1.70;;;1.50;;
16928;SDS011;8581;47.334;11.190;2023-09-19T02:15:17;2.03;;;1.40;;
16928;SDS011;8581;47.334;11.190;2023-09-19T02:17:49;1.50;;;1.40;;
16928;SDS011;8581;47.334;11.190;2023-09-19T02:20:21;1.63;;;1.53;;
16928;SDS011;8581;47.334;11.190;2023-09-19T02:22:52;1.77;;;1.50;;
16928;SDS011;8581;47.334;11.190;2023-09-19T02:25:24;2.40;;;2.20;;
16928;SDS011;8581;47.334;11.190;2023-09-19T02:27:55;2.30;;;1.80;;
16928;SDS011;8581;47.334;11.190;2023-09-19T02:30:27;3.60;;;2.30;;
16928;SDS011;8581;47.334;11.190;2023-09-19T02:32:59;3.10;;;1.97;;
16928;SDS011;8581;47.334;11.190;2023-09-19T02:35:32;2.23;;;2.03;;
16928;SDS011;8581;47.334;11.190;2023-09-19T02:38:03;3.63;;;2.40;;
16928;SDS011;8581;47.334;11.190;2023-09-19T02:40:35;2.90;;;2.40;;
16928;SDS011;8581;47.334;11.190;2023-09-19T02:43:07;2.07;;;1.87;;
16928;SDS011;8581;47.334;11.190;2023-09-19T02:45:38;2.17;;;1.97;;
16928;SDS011;8581;47.334;11.190;2023-09-19T02:48:10;2.40;;;2.20;;
16928;SDS011;8581;47.334;11.190;2023-09-19T02:50:42;1.80;;;1.70;;
16928;SDS011;8581;47.334;11.190;2023-09-19T02:53:13;3.60;;;2.00;;
16928;SDS011;8581;47.334;11.190;2023-09-19T02:55:46;4.30;;;1.87;;
16928;SDS011;8581;47.334;11.190;2023-09-19T02:58:17;3.47;;;2.10;;
16928;SDS011;8581;47.334;11.190;2023-09-19T03:00:48;1.70;;;1.60;;
16928;SDS011;8581;47.334;11.190;2023-09-19T03:03:20;1.47;;;1.20;;
16928;SDS011;8581;47.334;11.190;2023-09-19T03:05:52;1.73;;;1.30;;
16928;SDS011;8581;47.334;11.190;2023-09-19T03:08:23;1.43;;;1.30;;
16928;SDS011;8581;47.334;11.190;2023-09-19T03:10:55;2.03;;;1.30;;
16928;SDS011;8581;47.334;11.190;2023-09-19T03:13:27;1.40;;;1.30;;
16928;SDS011;8581;47.334;11.190;2023-09-19T03:15:58;1.80;;;1.30;;
16928;SDS011;8581;47.334;11.190;2023-09-19T03:18:30;2.77;;;1.60;;
16928;SDS011;8581;47.334;11.190;2023-09-19T03:21:01;1.70;;;1.40;;
16928;SDS011;8581;47.334;11.190;2023-09-19T03:23:33;3.13;;;1.60;;
16928;SDS011;8581;47.334;11.190;2023-09-19T03:26:05;2.27;;;2.07;;
16928;SDS011;8581;47.334;11.190;2023-09-19T03:28:37;3.53;;;2.70;;
16928;SDS011;8581;47.334;11.190;2023-09-19T03:31:09;2.70;;;2.50;;
16928;SDS011;8581;47.334;11.190;2023-09-19T03:33:40;3.20;;;2.60;;
16928;SDS011;8581;47.334;11.190;2023-09-19T03:36:12;2.40;;;2.20;;
16928;SDS011;8581;47.334;11.190;2023-09-19T03:38:44;3.53;;;2.07;;
16928;SDS011;8581;47.334;11.190;2023-09-19T03:41:15;2.67;;;1.67;;
16928;SDS011;8581;47.334;11.190;2023-09-19T03:43:47;2.93;;;2.47;;
16928;SDS011;8581;47.334;11.190;2023-09-19T03:46:18;1.90;;;1.67;;
16928;SDS011;8581;47.334;11.190;2023-09-19T03:48:50;1.50;;;1.40;;
16928;SDS011;8581;47.334;11.190;2023-09-19T03:51:22;2.70;;;1.80;;
16928;SDS011;8581;47.334;11.190;2023-09-19T03:53:53;1.67;;;1.57;;
16928;SDS011;8581;47.334;11.190;2023-09-19T03:56:25;1.80;;;1.70;;
16928;SDS011;8581;47.334;11.190;2023-09-19T03:58:56;1.63;;;1.53;;
16928;SDS011;8581;47.334;11.190;2023-09-19T04:01:28;1.80;;;1.53;;
16928;SDS011;8581;47.334;11.190;2023-09-19T04:04:00;2.23;;;1.70;;
16928;SDS011;8581;47.334;11.190;2023-09-19T04:06:31;2.13;;;1.77;;
16928;SDS011;8581;47.334;11.190;2023-09-19T04:09:03;2.80;;;1.50;;
16928;SDS011;8581;47.334;11.190;2023-09-19T04:11:35;1.40;;;1.30;;
16928;SDS011;8581;47.334;11.190;2023-09-19T04:14:06;2.33;;;1.30;;
16928;SDS011;8581;47.334;11.190;2023-09-19T04:16:38;1.10;;;1.10;;
16928;SDS011;8581;47.334;11.190;2023-09-19T04:19:10;1.37;;;1.20;;
16928;SDS011;8581;47.334;11.190;2023-09-19T04:21:41;1.70;;;1.60;;
16928;SDS011;8581;47.334;11.190;2023-09-19T04:24:13;1.63;;;1.50;;
16928;SDS011;8581;47.334;11.190;2023-09-19T04:26:45;1.97;;;1.30;;
16928;SDS011;8581;47.334;11.190;2023-09-19T04:29:16;1.87;;;1.40;;
16928;SDS011;8581;47.334;11.190;2023-09-19T04:31:48;1.77;;;1.30;;
16928;SDS011;8581;47.334;11.190;2023-09-19T04:34:19;1.70;;;1.40;;
16928;SDS011;8581;47.334;11.190;2023-09-19T04:36:51;2.37;;;1.37;;
16928;SDS011;8581;47.334;11.190;2023-09-19T04:39:22;1.10;;;1.10;;
16928;SDS011;8581;47.334;11.190;2023-09-19T04:41:54;2.57;;;1.47;;
16928;SDS011;8581;47.334;11.190;2023-09-19T04:44:26;1.87;;;1.60;;
16928;SDS011;8581;47.334;11.190;2023-09-19T04:46:57;1.73;;;1.27;;
16928;SDS011;8581;47.334;11.190;2023-09-19T04:49:29;1.67;;;1.27;;
16928;SDS011;8581;47.334;11.190;2023-09-19T04:52:00;1.53;;;1.40;;
16928;SDS011;8581;47.334;11.190;2023-09-19T04:54:32;1.87;;;1.30;;
16928;SDS011;8581;47.334;11.190;2023-09-19T04:57:04;1.30;;;1.20;;
16928;SDS011;8581;47.334;11.190;2023-09-19T04:59:36;3.47;;;1.37;;
16928;SDS011;8581;47.334;11.190;2023-09-19T05:02:08;1.40;;;1.30;;
16928;SDS011;8581;47.334;11.190;2023-09-19T05:04:39;1.30;;;1.20;;
16928;SDS011;8581;47.334;11.190;2023-09-19T05:07:11;1.93;;;1.60;;
16928;SDS011;8581;47.334;11.190;2023-09-19T05:09:42;2.27;;;1.37;;
16928;SDS011;8581;47.334;11.190;2023-09-19T05:12:14;2.43;;;1.30;;
16928;SDS011;8581;47.334;11.190;2023-09-19T05:14:46;1.50;;;1.40;;
16928;SDS011;8581;47.334;11.190;2023-09-19T05:17:17;1.63;;;1.37;;
16928;SDS011;8581;47.334;11.190;2023-09-19T05:19:49;2.40;;;1.43;;
16928;SDS011;8581;47.334;11.190;2023-09-19T05:22:20;1.43;;;1.33;;
16928;SDS011;8581;47.334;11.190;2023-09-19T05:24:52;2.40;;;1.70;;
16928;SDS011;8581;47.334;11.190;2023-09-19T05:27:24;2.20;;;1.70;;
16928;SDS011;8581;47.334;11.190;2023-09-19T05:29:55;1.60;;;1.50;;
16928;SDS011;8581;47.334;11.190;2023-09-19T05:32:27;1.80;;;1.37;;
16928;SDS011;8581;47.334;11.190;2023-09-19T05:34:58;1.50;;;1.40;;
16928;SDS011;8581;47.334;11.190;2023-09-19T05:37:30;1.60;;;1.40;;
16928;SDS011;8581;47.334;11.190;2023-09-19T05:40:02;1.50;;;1.37;;
16928;SDS011;8581;47.334;11.190;2023-09-19T05:42:33;3.33;;;3.03;;
16928;SDS011;8581;47.334;11.190;2023-09-19T05:45:05;1.70;;;1.60;;
16928;SDS011;8581;47.334;11.190;2023-09-19T05:47:39;1.40;;;1.30;;
16928;SDS011;8581;47.334;11.190;2023-09-19T05:50:11;1.67;;;1.57;;
16928;SDS011;8581;47.334;11.190;2023-09-19T05:52:42;3.57;;;1.60;;
16928;SDS011;8581;47.334;11.190;2023-09-19T05:55:14;3.10;;;1.70;;
16928;SDS011;8581;47.334;11.190;2023-09-19T05:57:50;3.30;;;2.07;;
16928;SDS011;8581;47.334;11.190;2023-09-19T06:00:22;1.70;;;1.60;;
16928;SDS011;8581;47.334;11.190;2023-09-19T06:02:59;1.73;;;1.40;;
16928;SDS011;8581;47.334;11.190;2023-09-19T06:05:30;1.90;;;1.30;;
16928;SDS011;8581;47.334;11.190;2023-09-19T06:08:02;1.70;;;1.60;;
16928;SDS011;8581;47.334;11.190;2023-09-19T06:10:35;2.13;;;1.60;;
16928;SDS011;8581;47.334;11.190;2023-09-19T06:13:06;2.07;;;1.27;;
16928;SDS011;8581;47.334;11.190;2023-09-19T06:15:38;1.60;;;1.20;;
16928;SDS011;8581;47.334;11.190;2023-09-19T06:18:11;1.80;;;1.50;;
16928;SDS011;8581;47.334;11.190;2023-09-19T06:20:42;1.50;;;1.40;;
16928;SDS011;8581;47.334;11.190;2023-09-19T06:23:13;2.03;;;1.40;;
16928;SDS011;8581;47.334;11.190;2023-09-19T06:25:45;1.73;;;1.47;;
16928;SDS011;8581;47.334;11.190;2023-09-19T06:28:16;1.77;;;1.33;;
16928;SDS011;8581;47.334;11.190;2023-09-19T06:30:48;2.67;;;1.47;;
16928;SDS011;8581;47.334;11.190;2023-09-19T06:33:20;2.30;;;1.00;;
16928;SDS011;8581;47.334;11.190;2023-09-19T06:35:51;1.83;;;1.27;;
16928;SDS011;8581;47.334;11.190;2023-09-19T06:38:23;1.30;;;1.20;;
16928;SDS011;8581;47.334;11.190;2023-09-19T06:40:54;1.80;;;1.20;;
16928;SDS011;8581;47.334;11.190;2023-09-19T06:43:26;1.40;;;1.07;;
16928;SDS011;8581;47.334;11.190;2023-09-19T06:45:58;2.70;;;1.20;;
16928;SDS011;8581;47.334;11.190;2023-09-19T06:48:31;1.77;;;1.03;;
16928;SDS011;8581;47.334;11.190;2023-09-19T06:51:03;1.63;;;1.27;;
16928;SDS011;8581;47.334;11.190;2023-09-19T06:53:35;1.30;;;1.20;;
16928;SDS011;8581;47.334;11.190;2023-09-19T06:56:06;1.13;;;1.00;;
16928;SDS011;8581;47.334;11.190;2023-09-19T06:58:38;2.13;;;1.00;;
16928;SDS011;8581;47.334;11.190;2023-09-19T07:01:09;1.90;;;1.10;;
16928;SDS011;8581;47.334;11.190;2023-09-19T07:03:41;1.90;;;0.80;;
16928;SDS011;8581;47.334;11.190;2023-09-19T07:06:13;2.13;;;1.00;;
16928;SDS011;8581;47.334;11.190;2023-09-19T07:08:44;0.80;;;0.80;;
16928;SDS011;8581;47.334;11.190;2023-09-19T07:11:17;1.20;;;1.10;;
16928;SDS011;8581;47.334;11.190;2023-09-19T07:13:48;0.77;;;0.77;;
16928;SDS011;8581;47.334;11.190;2023-09-19T07:16:20;1.67;;;0.93;;
16928;SDS011;8581;47.334;11.190;2023-09-19T07:18:59;0.70;;;0.70;;
16928;SDS011;8581;47.334;11.190;2023-09-19T07:21:31;0.90;;;0.90;;
16928;SDS011;8581;47.334;11.190;2023-09-19T07:24:03;0.70;;;0.70;;
16928;SDS011;8581;47.334;11.190;2023-09-19T07:26:36;1.43;;;0.73;;
16928;SDS011;8581;47.334;11.190;2023-09-19T07:29:07;2.20;;;0.80;;
16928;SDS011;8581;47.334;11.190;2023-09-19T07:31:39;1.10;;;1.00;;
16928;SDS011;8581;47.334;11.190;2023-09-19T07:34:10;3.67;;;0.80;;
16928;SDS011;8581;47.334;11.190;2023-09-19T07:36:42;1.13;;;0.80;;
16928;SDS011;8581;47.334;11.190;2023-09-19T07:39:14;1.10;;;0.70;;
16928;SDS011;8581;47.334;11.190;2023-09-19T07:41:45;0.70;;;0.70;;
16928;SDS011;8581;47.334;11.190;2023-09-19T07:44:17;1.30;;;1.00;;
16928;SDS011;8581;47.334;11.190;2023-09-19T07:46:48;1.10;;;0.93;;
16928;SDS011;8581;47.334;11.190;2023-09-19T07:49:20;0.80;;;0.80;;
16928;SDS011;8581;47.334;11.190;2023-09-19T07:51:51;1.10;;;0.90;;
16928;SDS011;8581;47.334;11.190;2023-09-19T07:54:23;4.90;;;1.20;;
16928;SDS011;8581;47.334;11.190;2023-09-19T07:56:55;0.95;;;0.88;;
16928;SDS011;8581;47.334;11.190;2023-09-19T07:59:26;3.30;;;1.03;;
16928;SDS011;8581;47.334;11.190;2023-09-19T08:01:58;1.30;;;0.90;;
16928;SDS011;8581;47.334;11.190;2023-09-19T08:04:30;1.03;;;0.80;;
16928;SDS011;8581;47.334;11.190;2023-09-19T08:07:01;1.50;;;1.03;;
16928;SDS011;8581;47.334;11.190;2023-09-19T08:09:33;1.27;;;0.65;;
16928;SDS011;8581;47.334;11.190;2023-09-19T08:12:05;1.10;;;0.90;;
16928;SDS011;8581;47.334;11.190;2023-09-19T08:14:37;0.77;;;0.70;;
16928;SDS011;8581;47.334;11.190;2023-09-19T08:17:09;2.35;;;0.90;;
16928;SDS011;8581;47.334;11.190;2023-09-19T08:19:40;1.27;;;1.10;;
16928;SDS011;8581;47.334;11.190;2023-09-19T08:22:12;1.33;;;1.07;;
16928;SDS011;8581;47.334;11.190;2023-09-19T08:24:43;0.80;;;0.80;;
16928;SDS011;8581;47.334;11.190;2023-09-19T08:27:15;0.70;;;0.70;;
16928;SDS011;8581;47.334;11.190;2023-09-19T08:29:46;3.17;;;1.05;;
16928;SDS011;8581;47.334;11.190;2023-09-19T08:32:18;1.70;;;1.00;;
16928;SDS011;8581;47.334;11.190;2023-09-19T08:34:50;0.77;;;0.77;;
16928;SDS011;8581;47.334;11.190;2023-09-19T08:37:21;1.27;;;0.80;;
16928;SDS011;8581;47.334;11.190;2023-09-19T08:39:53;0.80;;;0.75;;
16928;SDS011;8581;47.334;11.190;2023-09-19T08:42:25;1.45;;;0.90;;
16928;SDS011;8581;47.334;11.190;2023-09-19T08:44:56;1.30;;;1.00;;
16928;SDS011;8581;47.334;11.190;2023-09-19T08:47:35;0.70;;;0.70;;
16928;SDS011;8581;47.334;11.190;2023-09-19T08:50:07;1.55;;;1.10;;
16928;SDS011;8581;47.334;11.190;2023-09-19T08:52:40;1.92;;;1.00;;
16928;SDS011;8581;47.334;11.190;2023-09-19T08:55:11;0.80;;;0.80;;
16928;SDS011;8581;47.334;11.190;2023-09-19T08:57:41;1.20;;;0.68;;
16928;SDS011;8581;47.334;11.190;2023-09-19T09:00:13;0.90;;;0.90;;
16928;SDS011;8581;47.334;11.190;2023-09-19T09:02:45;0.90;;;0.90;;
16928;SDS011;8581;47.334;11.190;2023-09-19T09:05:17;1.52;;;1.00;;
16928;SDS011;8581;47.334;11.190;2023-09-19T09:07:49;3.95;;;1.00;;
16928;SDS011;8581;47.334;11.190;2023-09-19T09:10:21;0.93;;;0.90;;
16928;SDS011;8581;47.334;11.190;2023-09-19T09:12:52;5.03;;;1.05;;
16928;SDS011;8581;47.334;11.190;2023-09-19T09:15:26;1.30;;;1.02;;
16928;SDS011;8581;47.334;11.190;2023-09-19T09:17:57;1.00;;;0.90;;
16928;SDS011;8581;47.334;11.190;2023-09-19T09:20:29;1.45;;;1.00;;
16928;SDS011;8581;47.334;11.190;2023-09-19T09:23:00;1.12;;;0.90;;
16928;SDS011;8581;47.334;11.190;2023-09-19T09:26:08;1.37;;;0.90;;
16928;SDS011;8581;47.334;11.190;2023-09-19T09:28:26;1.87;;;1.00;;
16928;SDS011;8581;47.334;11.190;2023-09-19T09:30:57;2.20;;;1.00;;
16928;SDS011;8581;47.334;11.190;2023-09-19T09:33:29;1.02;;;0.88;;
16928;SDS011;8581;47.334;11.190;2023-09-19T09:36:01;1.40;;;1.02;;
16928;SDS011;8581;47.334;11.190;2023-09-19T09:41:15;1.60;;;1.00;;
16928;SDS011;8581;47.334;11.190;2023-09-19T09:43:46;1.12;;;0.95;;
16928;SDS011;8581;47.334;11.190;2023-09-19T09:46:18;1.72;;;1.20;;
16928;SDS011;8581;47.334;11.190;2023-09-19T09:49:07;1.20;;;1.00;;
16928;SDS011;8581;47.334;11.190;2023-09-19T09:51:49;4.30;;;1.10;;
16928;SDS011;8581;47.334;11.190;2023-09-19T09:54:19;0.82;;;0.82;;
16928;SDS011;8581;47.334;11.190;2023-09-19T09:56:58;1.02;;;0.80;;
16928;SDS011;8581;47.334;11.190;2023-09-19T10:02:14;0.90;;;0.82;;
16928;SDS011;8581;47.334;11.190;2023-09-19T10:04:52;0.90;;;0.90;;
16928;SDS011;8581;47.334;11.190;2023-09-19T10:07:38;1.10;;;1.00;;
16928;SDS011;8581;47.334;11.190;2023-09-19T10:10:10;3.92;;;1.05;;
16928;SDS011;8581;47.334;11.190;2023-09-19T10:12:44;0.80;;;0.80;;
16928;SDS011;8581;47.334;11.190;2023-09-19T10:15:15;1.98;;;0.85;;
16928;SDS011;8581;47.334;11.190;2023-09-19T10:17:47;1.20;;;0.90;;
16928;SDS011;8581;47.334;11.190;2023-09-19T10:20:18;2.50;;;0.93;;
16928;SDS011;8581;47.334;11.190;2023-09-19T10:23:07;0.60;;;0.60;;
16928;SDS011;8581;47.334;11.190;2023-09-19T10:25:38;0.80;;;0.80;;
16928;SDS011;8581;47.334;11.190;2023-09-19T10:28:11;0.80;;;0.80;;
16928;SDS011;8581;47.334;11.190;2023-09-19T10:30:42;0.88;;;0.88;;
16928;SDS011;8581;47.334;11.190;2023-09-19T10:33:15;1.00;;;0.90;;
16928;SDS011;8581;47.334;11.190;2023-09-19T10:35:47;1.45;;;1.00;;
16928;SDS011;8581;47.334;11.190;2023-09-19T10:38:18;1.12;;;0.98;;
16928;SDS011;8581;47.334;11.190;2023-09-19T10:40:50;1.05;;;0.80;;
16928;SDS011;8581;47.334;11.190;2023-09-19T10:43:22;0.68;;;0.68;;
16928;SDS011;8581;47.334;11.190;2023-09-19T10:45:53;0.75;;;0.75;;
16928;SDS011;8581;47.334;11.190;2023-09-19T10:48:25;0.88;;;0.70;;
16928;SDS011;8581;47.334;11.190;2023-09-19T10:51:02;1.65;;;0.70;;
16928;SDS011;8581;47.334;11.190;2023-09-19T10:56:24;20.88;;;1.65;;
16928;SDS011;8581;47.334;11.190;2023-09-19T10:59:05;0.50;;;0.50;;
16928;SDS011;8581;47.334;11.190;2023-09-19T11:04:23;0.70;;;0.70;;
16928;SDS011;8581;47.334;11.190;2023-09-19T11:07:00;0.65;;;0.65;;
16928;SDS011;8581;47.334;11.190;2023-09-19T11:09:49;0.93;;;0.60;;
16928;SDS011;8581;47.334;11.190;2023-09-19T11:12:47;2.17;;;0.70;;
16928;SDS011;8581;47.334;11.190;2023-09-19T11:27:09;1.17;;;0.60;;
16928;SDS011;8581;47.334;11.190;2023-09-19T11:29:40;1.20;;;0.50;;
16928;SDS011;8581;47.334;11.190;2023-09-19T11:32:12;0.98;;;0.42;;
16928;SDS011;8581;47.334;11.190;2023-09-19T11:34:44;0.80;;;0.70;;
16928;SDS011;8581;47.334;11.190;2023-09-19T11:37:59;0.50;;;0.50;;
16928;SDS011;8581;47.334;11.190;2023-09-19T11:42:44;0.70;;;0.70;;
16928;SDS011;8581;47.334;11.190;2023-09-19T11:47:59;0.42;;;0.42;;
16928;SDS011;8581;47.334;11.190;2023-09-19T11:50:30;0.80;;;0.55;;
16928;SDS011;8581;47.334;11.190;2023-09-19T11:53:02;0.57;;;0.40;;
16928;SDS011;8581;47.334;11.190;2023-09-19T11:55:34;1.15;;;0.72;;
16928;SDS011;8581;47.334;11.190;2023-09-19T11:58:06;0.78;;;0.70;;
16928;SDS011;8581;47.334;11.190;2023-09-19T12:00:38;0.60;;;0.60;;
16928;SDS011;8581;47.334;11.190;2023-09-19T12:03:10;0.50;;;0.50;;
16928;SDS011;8581;47.334;11.190;2023-09-19T12:05:41;0.60;;;0.60;;
16928;SDS011;8581;47.334;11.190;2023-09-19T12:08:14;2.40;;;0.53;;
16928;SDS011;8581;47.334;11.190;2023-09-19T12:10:45;1.07;;;0.70;;
16928;SDS011;8581;47.334;11.190;2023-09-19T12:13:17;1.15;;;0.60;;
16928;SDS011;8581;47.334;11.190;2023-09-19T12:15:48;1.75;;;0.70;;
16928;SDS011;8581;47.334;11.190;2023-09-19T12:18:26;0.60;;;0.60;;
16928;SDS011;8581;47.334;11.190;2023-09-19T12:20:58;0.60;;;0.60;;
16928;SDS011;8581;47.334;11.190;2023-09-19T12:23:30;1.52;;;0.68;;
16928;SDS011;8581;47.334;11.190;2023-09-19T12:26:01;4.03;;;1.00;;
16928;SDS011;8581;47.334;11.190;2023-09-19T12:28:37;0.70;;;0.70;;
16928;SDS011;8581;47.334;11.190;2023-09-19T12:31:06;0.57;;;0.57;;
16928;SDS011;8581;47.334;11.190;2023-09-19T12:33:37;0.60;;;0.60;;
16928;SDS011;8581;47.334;11.190;2023-09-19T12:38:50;0.50;;;0.50;;
16928;SDS011;8581;47.334;11.190;2023-09-19T12:41:22;0.40;;;0.40;;
16928;SDS011;8581;47.334;11.190;2023-09-19T12:43:53;1.35;;;0.60;;
16928;SDS011;8581;47.334;11.190;2023-09-19T12:46:32;0.68;;;0.68;;
16928;SDS011;8581;47.334;11.190;2023-09-19T12:51:46;0.55;;;0.53;;
16928;SDS011;8581;47.334;11.190;2023-09-19T12:54:17;0.50;;;0.50;;
16928;SDS011;8581;47.334;11.190;2023-09-19T12:56:49;0.62;;;0.40;;
16928;SDS011;8581;47.334;11.190;2023-09-19T12:59:28;0.95;;;0.60;;
16928;SDS011;8581;47.334;11.190;2023-09-19T13:01:52;0.78;;;0.60;;
16928;SDS011;8581;47.334;11.190;2023-09-19T13:04:23;2.77;;;0.60;;
16928;SDS011;8581;47.334;11.190;2023-09-19T13:06:57;1.82;;;0.45;;
16928;SDS011;8581;47.334;11.190;2023-09-19T13:09:30;3.72;;;0.70;;
16928;SDS011;8581;47.334;11.190;2023-09-19T13:12:03;3.72;;;0.60;;
16928;SDS011;8581;47.334;11.190;2023-09-19T13:14:35;0.40;;;0.40;;
16928;SDS011;8581;47.334;11.190;2023-09-19T13:17:09;1.80;;;0.50;;
16928;SDS011;8581;47.334;11.190;2023-09-19T13:19:47;11.78;;;1.30;;
16928;SDS011;8581;47.334;11.190;2023-09-19T13:25:04;2.50;;;0.82;;
16928;SDS011;8581;47.334;11.190;2023-09-19T13:27:36;34.78;;;4.10;;
16928;SDS011;8581;47.334;11.190;2023-09-19T13:30:08;3.60;;;0.75;;
16928;SDS011;8581;47.334;11.190;2023-09-19T13:32:40;1.10;;;0.50;;
16928;SDS011;8581;47.334;11.190;2023-09-19T13:35:12;0.75;;;0.60;;
16928;SDS011;8581;47.334;11.190;2023-09-19T13:37:44;1.17;;;0.70;;
16928;SDS011;8581;47.334;11.190;2023-09-19T13:40:15;14.58;;;1.47;;
16928;SDS011;8581;47.334;11.190;2023-09-19T13:42:47;0.62;;;0.50;;
16928;SDS011;8581;47.334;11.190;2023-09-19T13:45:18;0.45;;;0.45;;
16928;SDS011;8581;47.334;11.190;2023-09-19T13:47:50;0.55;;;0.50;;
16928;SDS011;8581;47.334;11.190;2023-09-19T13:50:22;0.50;;;0.50;;
16928;SDS011;8581;47.334;11.190;2023-09-19T13:52:54;0.85;;;0.60;;
16928;SDS011;8581;47.334;11.190;2023-09-19T13:55:26;0.50;;;0.50;;
16928;SDS011;8581;47.334;11.190;2023-09-19T13:57:57;1.45;;;0.60;;
16928;SDS011;8581;47.334;11.190;2023-09-19T14:00:29;0.68;;;0.50;;
16928;SDS011;8581;47.334;11.190;2023-09-19T14:03:01;2.83;;;0.75;;
16928;SDS011;8581;47.334;11.190;2023-09-19T14:05:32;0.85;;;0.50;;
16928;SDS011;8581;47.334;11.190;2023-09-19T14:08:04;0.42;;;0.42;;
16928;SDS011;8581;47.334;11.190;2023-09-19T14:10:36;0.50;;;0.50;;
16928;SDS011;8581;47.334;11.190;2023-09-19T14:13:08;0.85;;;0.60;;
16928;SDS011;8581;47.334;11.190;2023-09-19T14:15:39;0.50;;;0.50;;
16928;SDS011;8581;47.334;11.190;2023-09-19T14:18:11;1.10;;;0.40;;
16928;SDS011;8581;47.334;11.190;2023-09-19T14:20:43;0.62;;;0.62;;
16928;SDS011;8581;47.334;11.190;2023-09-19T14:23:17;0.40;;;0.40;;
16928;SDS011;8581;47.334;11.190;2023-09-19T14:25:50;0.50;;;0.50;;
16928;SDS011;8581;47.334;11.190;2023-09-19T14:28:21;2.05;;;0.65;;
16928;SDS011;8581;47.334;11.190;2023-09-19T14:30:53;0.90;;;0.70;;
16928;SDS011;8581;47.334;11.190;2023-09-19T14:33:25;0.40;;;0.40;;
16928;SDS011;8581;47.334;11.190;2023-09-19T14:36:00;0.47;;;0.47;;
16928;SDS011;8581;47.334;11.190;2023-09-19T14:38:33;0.50;;;0.50;;
16928;SDS011;8581;47.334;11.190;2023-09-19T14:41:05;0.70;;;0.45;;
16928;SDS011;8581;47.334;11.190;2023-09-19T14:43:36;1.90;;;0.62;;
16928;SDS011;8581;47.334;11.190;2023-09-19T14:46:08;0.50;;;0.50;;
16928;SDS011;8581;47.334;11.190;2023-09-19T14:48:40;0.55;;;0.55;;
16928;SDS011;8581;47.334;11.190;2023-09-19T14:51:12;1.75;;;0.60;;
16928;SDS011;8581;47.334;11.190;2023-09-19T14:53:43;0.47;;;0.47;;
16928;SDS011;8581;47.334;11.190;2023-09-19T14:56:15;0.90;;;0.40;;
16928;SDS011;8581;47.334;11.190;2023-09-19T14:58:47;0.70;;;0.50;;
16928;SDS011;8581;47.334;11.190;2023-09-19T15:01:18;0.50;;;0.50;;
16928;SDS011;8581;47.334;11.190;2023-09-19T15:03:50;0.50;;;0.50;;
16928;SDS011;8581;47.334;11.190;2023-09-19T15:06:21;0.50;;;0.50;;
16928;SDS011;8581;47.334;11.190;2023-09-19T15:08:53;0.50;;;0.50;;
16928;SDS011;8581;47.334;11.190;2023-09-19T15:11:25;1.60;;;0.60;;
16928;SDS011;8581;47.334;11.190;2023-09-19T15:13:56;0.70;;;0.50;;
16928;SDS011;8581;47.334;11.190;2023-09-19T15:16:28;0.85;;;0.40;;
16928;SDS011;8581;47.334;11.190;2023-09-19T15:18:59;0.62;;;0.50;;
16928;SDS011;8581;47.334;11.190;2023-09-19T15:21:31;0.50;;;0.50;;
16928;SDS011;8581;47.334;11.190;2023-09-19T15:24:03;0.50;;;0.50;;
16928;SDS011;8581;47.334;11.190;2023-09-19T15:26:36;2.70;;;0.75;;
16928;SDS011;8581;47.334;11.190;2023-09-19T15:29:07;2.33;;;0.60;;
16928;SDS011;8581;47.334;11.190;2023-09-19T15:31:38;0.53;;;0.40;;
16928;SDS011;8581;47.334;11.190;2023-09-19T15:34:10;0.40;;;0.40;;
16928;SDS011;8581;47.334;11.190;2023-09-19T15:36:42;0.68;;;0.50;;
16928;SDS011;8581;47.334;11.190;2023-09-19T15:39:13;0.45;;;0.45;;
16928;SDS011;8581;47.334;11.190;2023-09-19T15:41:45;0.57;;;0.42;;
16928;SDS011;8581;47.334;11.190;2023-09-19T15:44:17;0.50;;;0.50;;
16928;SDS011;8581;47.334;11.190;2023-09-19T15:46:48;0.50;;;0.50;;
16928;SDS011;8581;47.334;11.190;2023-09-19T15:49:20;0.50;;;0.50;;
16928;SDS011;8581;47.334;11.190;2023-09-19T15:51:51;0.50;;;0.50;;
16928;SDS011;8581;47.334;11.190;2023-09-19T15:54:23;0.50;;;0.50;;
16928;SDS011;8581;47.334;11.190;2023-09-19T15:56:55;0.53;;;0.53;;
16928;SDS011;8581;47.334;11.190;2023-09-19T15:59:26;1.00;;;0.60;;